createdAt,value
2017-07-19T00:00:12.163Z,0
2017-07-19T00:00:52.617Z,0
2017-07-19T00:01:33.070Z,0
2017-07-19T00:02:13.531Z,0
2017-07-19T00:02:53.987Z,0
2017-07-19T00:03:34.442Z,0
2017-07-19T00:04:14.899Z,0
2017-07-19T00:04:55.346Z,0
2017-07-19T00:05:35.803Z,0
2017-07-19T00:06:16.250Z,0
2017-07-19T00:06:56.707Z,0
2017-07-19T00:07:37.161Z,0
2017-07-19T00:08:17.619Z,0
2017-07-19T00:08:58.069Z,0
2017-07-19T00:09:38.527Z,0
2017-07-19T00:10:18.980Z,0
2017-07-19T00:10:59.440Z,0
2017-07-19T00:11:39.897Z,0
2017-07-19T00:12:20.352Z,0
2017-07-19T00:13:00.808Z,0
2017-07-19T00:13:41.259Z,0
2017-07-19T00:14:21.717Z,0
2017-07-19T00:15:02.171Z,0
2017-07-19T00:15:42.624Z,0
2017-07-19T00:16:23.074Z,0
2017-07-19T00:17:03.526Z,0
2017-07-19T00:17:43.974Z,0
2017-07-19T00:18:24.428Z,0
2017-07-19T00:19:04.882Z,0
2017-07-19T00:19:45.341Z,0
2017-07-19T00:20:25.794Z,0
2017-07-19T00:21:06.264Z,0
2017-07-19T00:21:46.692Z,0
2017-07-19T00:22:27.150Z,0
2017-07-19T00:23:07.608Z,0
2017-07-19T00:23:48.061Z,0
2017-07-19T00:24:28.513Z,0
2017-07-19T00:25:08.959Z,0
2017-07-19T00:25:49.415Z,0
2017-07-19T00:26:29.869Z,0
2017-07-19T00:27:10.323Z,0
2017-07-19T00:27:50.782Z,0
2017-07-19T00:28:31.237Z,0
2017-07-19T00:29:11.689Z,0
2017-07-19T00:29:52.147Z,0
2017-07-19T00:30:32.607Z,0
2017-07-19T00:31:13.060Z,0
2017-07-19T00:31:53.514Z,0
2017-07-19T00:32:33.968Z,0
2017-07-19T00:33:14.421Z,0
2017-07-19T00:33:54.878Z,0
2017-07-19T00:34:35.336Z,0
2017-07-19T00:35:15.789Z,0
2017-07-19T00:35:56.250Z,0
2017-07-19T00:36:36.708Z,0
2017-07-19T00:37:17.161Z,0
2017-07-19T00:37:57.618Z,0
2017-07-19T00:38:38.077Z,0
2017-07-19T00:39:18.521Z,0
2017-07-19T00:39:58.967Z,0
2017-07-19T00:40:39.418Z,0
2017-07-19T00:41:19.861Z,0
2017-07-19T00:42:00.316Z,0
2017-07-19T00:42:40.771Z,0
2017-07-19T00:43:21.220Z,0
2017-07-19T00:44:01.674Z,0
2017-07-19T00:44:42.130Z,0
2017-07-19T00:45:22.588Z,0
2017-07-19T00:46:03.041Z,0
2017-07-19T00:46:43.496Z,0
2017-07-19T00:47:23.952Z,0
2017-07-19T00:48:04.402Z,0
2017-07-19T00:48:44.853Z,0
2017-07-19T00:49:25.306Z,0
2017-07-19T00:50:05.756Z,0
2017-07-19T00:50:46.213Z,0
2017-07-19T00:51:26.669Z,0
2017-07-19T00:52:07.122Z,0
2017-07-19T00:52:47.575Z,0
2017-07-19T00:53:28.032Z,0
2017-07-19T00:54:08.498Z,0
2017-07-19T00:54:48.987Z,0
2017-07-19T00:55:29.437Z,0
2017-07-19T00:56:09.892Z,0
2017-07-19T00:56:50.354Z,0
2017-07-19T00:57:30.816Z,0
2017-07-19T00:58:11.291Z,0
2017-07-19T00:58:51.732Z,0
2017-07-19T00:59:32.186Z,0
2017-07-19T01:00:12.638Z,0
2017-07-19T01:00:53.091Z,0
2017-07-19T01:01:33.547Z,0
2017-07-19T01:02:14.006Z,0
2017-07-19T01:02:54.458Z,0
2017-07-19T01:03:34.909Z,0
2017-07-19T01:04:15.365Z,0
2017-07-19T01:04:55.860Z,0
2017-07-19T01:05:36.314Z,0
2017-07-19T01:06:16.763Z,0
2017-07-19T01:06:57.222Z,0
2017-07-19T01:07:37.673Z,0
2017-07-19T01:08:18.131Z,0
2017-07-19T01:08:58.587Z,0
2017-07-19T01:09:39.048Z,0
2017-07-19T01:10:19.500Z,0
2017-07-19T01:11:00.011Z,0
2017-07-19T01:11:40.468Z,0
2017-07-19T01:12:20.916Z,0
2017-07-19T01:13:01.376Z,0
2017-07-19T01:13:41.828Z,0
2017-07-19T01:14:22.276Z,0
2017-07-19T01:15:02.733Z,0
2017-07-19T01:15:43.178Z,0
2017-07-19T01:16:23.629Z,0
2017-07-19T01:17:04.087Z,0
2017-07-19T01:17:44.537Z,0
2017-07-19T01:18:24.993Z,0
2017-07-19T01:19:05.444Z,0
2017-07-19T01:19:45.900Z,0
2017-07-19T01:20:26.357Z,0
2017-07-19T01:21:06.808Z,0
2017-07-19T01:21:47.255Z,0
2017-07-19T01:22:27.703Z,0
2017-07-19T01:23:08.164Z,0
2017-07-19T01:23:48.615Z,0
2017-07-19T01:24:29.063Z,0
2017-07-19T01:25:09.518Z,0
2017-07-19T01:25:49.966Z,0
2017-07-19T01:26:30.416Z,0
2017-07-19T01:27:10.876Z,0
2017-07-19T01:27:51.342Z,0
2017-07-19T01:28:31.776Z,0
2017-07-19T01:29:12.237Z,0
2017-07-19T01:29:52.693Z,0
2017-07-19T01:30:33.129Z,0
2017-07-19T01:31:13.572Z,0
2017-07-19T01:31:54.029Z,0
2017-07-19T01:32:34.486Z,0
2017-07-19T01:33:14.929Z,0
2017-07-19T01:33:55.379Z,0
2017-07-19T01:34:35.833Z,0
2017-07-19T01:35:16.288Z,0
2017-07-19T01:35:56.744Z,0
2017-07-19T01:36:37.194Z,0
2017-07-19T01:37:17.652Z,0
2017-07-19T01:37:58.103Z,0
2017-07-19T01:38:38.560Z,0
2017-07-19T01:39:19.013Z,0
2017-07-19T01:39:59.469Z,0
2017-07-19T01:40:39.927Z,0
2017-07-19T01:41:20.384Z,0
2017-07-19T01:42:00.842Z,0
2017-07-19T01:42:41.297Z,0
2017-07-19T01:43:21.754Z,0
2017-07-19T01:44:02.204Z,0
2017-07-19T01:44:42.657Z,0
2017-07-19T01:45:23.113Z,0
2017-07-19T01:46:03.565Z,0
2017-07-19T01:46:44.027Z,0
2017-07-19T01:47:24.485Z,0
2017-07-19T01:48:04.940Z,0
2017-07-19T01:48:45.435Z,0
2017-07-19T01:49:25.889Z,0
2017-07-19T01:50:06.350Z,0
2017-07-19T01:50:46.804Z,0
2017-07-19T01:51:27.259Z,0
2017-07-19T01:52:07.717Z,0
2017-07-19T01:52:48.175Z,0
2017-07-19T01:53:28.635Z,0
2017-07-19T01:54:09.088Z,0
2017-07-19T01:54:49.541Z,0
2017-07-19T01:55:29.998Z,0
2017-07-19T01:56:10.455Z,0
2017-07-19T01:56:50.907Z,0
2017-07-19T01:57:31.363Z,0
2017-07-19T01:58:11.817Z,0
2017-07-19T01:58:52.270Z,0
2017-07-19T01:59:32.769Z,0
2017-07-19T02:00:13.223Z,0
2017-07-19T02:00:53.678Z,0
2017-07-19T02:01:34.136Z,0
2017-07-19T02:02:14.587Z,0
2017-07-19T02:02:55.041Z,0
2017-07-19T02:03:35.495Z,0
2017-07-19T02:04:15.951Z,0
2017-07-19T02:04:56.405Z,0
2017-07-19T02:05:36.864Z,0
2017-07-19T02:06:17.321Z,0
2017-07-19T02:06:57.782Z,0
2017-07-19T02:07:38.238Z,0
2017-07-19T02:08:18.685Z,0
2017-07-19T02:08:59.146Z,0
2017-07-19T02:09:39.603Z,0
2017-07-19T02:10:20.066Z,0
2017-07-19T02:11:00.517Z,0
2017-07-19T02:11:40.978Z,0
2017-07-19T02:12:21.428Z,0
2017-07-19T02:13:01.885Z,0
2017-07-19T02:13:42.343Z,0
2017-07-19T02:14:22.798Z,0
2017-07-19T02:15:03.278Z,0
2017-07-19T02:15:43.710Z,0
2017-07-19T02:16:24.160Z,0
2017-07-19T02:17:04.620Z,0
2017-07-19T02:17:45.076Z,0
2017-07-19T02:18:25.531Z,0
2017-07-19T02:19:05.983Z,0
2017-07-19T02:19:46.432Z,0
2017-07-19T02:20:26.892Z,0
2017-07-19T02:21:07.347Z,0
2017-07-19T02:21:47.803Z,0
2017-07-19T02:22:28.260Z,0
2017-07-19T02:23:08.715Z,0
2017-07-19T02:23:49.167Z,0
2017-07-19T02:24:29.629Z,0
2017-07-19T02:25:10.070Z,0
2017-07-19T02:25:50.515Z,0
2017-07-19T02:26:30.969Z,0
2017-07-19T02:27:11.424Z,0
2017-07-19T02:27:51.885Z,0
2017-07-19T02:28:32.336Z,0
2017-07-19T02:29:12.793Z,0
2017-07-19T02:29:53.255Z,0
2017-07-19T02:30:33.705Z,0
2017-07-19T02:31:14.162Z,0
2017-07-19T02:31:54.620Z,0
2017-07-19T02:32:35.076Z,0
2017-07-19T02:33:15.536Z,0
2017-07-19T02:33:55.994Z,0
2017-07-19T02:34:36.450Z,0
2017-07-19T02:35:16.904Z,0
2017-07-19T02:35:57.357Z,0
2017-07-19T02:36:37.811Z,0
2017-07-19T02:37:18.265Z,0
2017-07-19T02:37:58.729Z,0
2017-07-19T02:38:39.184Z,0
2017-07-19T02:39:19.637Z,0
2017-07-19T02:40:00.095Z,0
2017-07-19T02:40:40.548Z,0
2017-07-19T02:41:21.008Z,0
2017-07-19T02:42:01.463Z,0
2017-07-19T02:42:41.914Z,0
2017-07-19T02:43:22.378Z,0
2017-07-19T02:44:02.830Z,0
2017-07-19T02:44:43.288Z,0
2017-07-19T02:45:23.783Z,0
2017-07-19T02:46:04.245Z,0
2017-07-19T02:46:44.698Z,0
2017-07-19T02:47:25.157Z,0
2017-07-19T02:48:05.616Z,0
2017-07-19T02:48:46.063Z,0
2017-07-19T02:49:26.518Z,0
2017-07-19T02:50:06.975Z,0
2017-07-19T02:50:47.425Z,0
2017-07-19T02:51:27.889Z,0
2017-07-19T02:52:08.344Z,0
2017-07-19T02:52:48.883Z,0
2017-07-19T02:53:29.235Z,0
2017-07-19T02:54:09.689Z,0
2017-07-19T02:54:50.143Z,0
2017-07-19T02:55:30.599Z,0
2017-07-19T02:56:11.060Z,0
2017-07-19T02:56:51.514Z,0
2017-07-19T02:57:31.970Z,0
2017-07-19T02:58:12.449Z,0
2017-07-19T02:58:52.899Z,0
2017-07-19T02:59:33.351Z,0
2017-07-19T03:00:13.807Z,0
2017-07-19T03:00:54.259Z,0
2017-07-19T03:01:34.708Z,0
2017-07-19T03:02:15.224Z,0
2017-07-19T03:02:55.633Z,0
2017-07-19T03:03:36.104Z,0
2017-07-19T03:04:16.550Z,0
2017-07-19T03:04:57.007Z,0
2017-07-19T03:05:37.461Z,0
2017-07-19T03:06:17.915Z,0
2017-07-19T03:06:58.423Z,0
2017-07-19T03:07:38.880Z,0
2017-07-19T03:08:19.337Z,0
2017-07-19T03:08:59.794Z,0
2017-07-19T03:09:40.252Z,0
2017-07-19T03:10:20.708Z,0
2017-07-19T03:11:01.161Z,0
2017-07-19T03:11:41.617Z,0
2017-07-19T03:12:22.075Z,0
2017-07-19T03:13:02.530Z,0
2017-07-19T03:13:42.994Z,0
2017-07-19T03:14:23.447Z,0
2017-07-19T03:15:07.903Z,0
2017-07-19T03:15:48.364Z,0
2017-07-19T03:16:28.822Z,0
2017-07-19T03:17:09.275Z,0
2017-07-19T03:17:49.738Z,0
2017-07-19T03:18:30.193Z,0
2017-07-19T03:19:10.645Z,0
2017-07-19T03:19:51.098Z,0
2017-07-19T03:20:31.551Z,0
2017-07-19T03:21:12.007Z,0
2017-07-19T03:21:52.468Z,0
2017-07-19T03:22:32.923Z,0
2017-07-19T03:23:13.397Z,0
2017-07-19T03:23:53.847Z,0
2017-07-19T03:24:34.286Z,0
2017-07-19T03:25:14.749Z,0
2017-07-19T03:25:55.195Z,0
2017-07-19T03:26:35.650Z,0
2017-07-19T03:27:16.103Z,0
2017-07-19T03:27:56.558Z,0
2017-07-19T03:28:37.017Z,0
2017-07-19T03:29:17.470Z,0
2017-07-19T03:29:57.927Z,0
2017-07-19T03:30:38.383Z,0
2017-07-19T03:31:18.839Z,0
2017-07-19T03:31:59.296Z,0
2017-07-19T03:32:39.756Z,0
2017-07-19T03:33:20.235Z,0
2017-07-19T03:34:00.697Z,0
2017-07-19T03:34:41.146Z,0
2017-07-19T03:35:21.601Z,4
2017-07-19T03:36:02.057Z,0
2017-07-19T03:36:42.518Z,0
2017-07-19T03:37:22.976Z,0
2017-07-19T03:38:03.431Z,0
2017-07-19T03:38:43.887Z,0
2017-07-19T03:39:24.343Z,0
2017-07-19T03:40:04.800Z,0
2017-07-19T03:40:45.254Z,0
2017-07-19T03:41:25.711Z,0
2017-07-19T03:42:06.169Z,0
2017-07-19T03:42:46.626Z,0
2017-07-19T03:43:27.079Z,0
2017-07-19T03:44:07.539Z,0
2017-07-19T03:44:47.991Z,0
2017-07-19T03:45:28.449Z,0
2017-07-19T03:46:08.900Z,0
2017-07-19T03:46:49.341Z,0
2017-07-19T03:47:29.801Z,0
2017-07-19T03:48:10.255Z,0
2017-07-19T03:48:50.744Z,28
2017-07-19T03:49:31.195Z,28
2017-07-19T03:50:11.644Z,48
2017-07-19T03:50:52.099Z,72
2017-07-19T03:51:32.557Z,72
2017-07-19T03:52:12.991Z,28
2017-07-19T03:52:53.438Z,52
2017-07-19T03:53:33.881Z,52
2017-07-19T03:54:14.327Z,52
2017-07-19T03:54:54.781Z,56
2017-07-19T03:55:35.236Z,56
2017-07-19T03:58:08.529Z,64
2017-07-19T03:58:48.991Z,68
2017-07-19T03:59:29.441Z,72
2017-07-19T04:00:09.897Z,72
2017-07-19T04:00:50.343Z,76
2017-07-19T04:01:30.799Z,80
2017-07-19T04:02:11.246Z,80
2017-07-19T04:02:51.749Z,88
2017-07-19T04:03:32.198Z,88
2017-07-19T04:04:12.659Z,92
2017-07-19T04:04:53.108Z,96
2017-07-19T04:05:33.564Z,100
2017-07-19T04:06:14.025Z,104
2017-07-19T04:06:54.476Z,104
2017-07-19T04:07:34.929Z,104
2017-07-19T04:08:15.378Z,108
2017-07-19T04:08:55.831Z,108
2017-07-19T04:09:36.284Z,108
2017-07-19T04:10:16.733Z,108
2017-07-19T04:10:57.185Z,112
2017-07-19T04:11:37.638Z,116
2017-07-19T04:12:18.095Z,116
2017-07-19T04:12:58.539Z,120
2017-07-19T04:13:39.001Z,120
2017-07-19T04:14:19.463Z,124
2017-07-19T04:14:59.919Z,128
2017-07-19T04:15:40.376Z,132
2017-07-19T04:16:20.823Z,136
2017-07-19T04:17:01.280Z,140
2017-07-19T04:17:41.736Z,148
2017-07-19T04:18:22.187Z,152
2017-07-19T04:19:02.644Z,152
2017-07-19T04:19:43.103Z,152
2017-07-19T04:20:23.558Z,156
2017-07-19T04:21:04.014Z,156
2017-07-19T04:21:44.468Z,156
2017-07-19T04:22:24.929Z,156
2017-07-19T04:23:05.384Z,156
2017-07-19T04:23:45.841Z,156
2017-07-19T04:24:26.292Z,156
2017-07-19T04:25:06.849Z,156
2017-07-19T04:25:47.303Z,156
2017-07-19T04:26:27.776Z,156
2017-07-19T04:27:08.224Z,152
2017-07-19T04:27:48.669Z,152
2017-07-19T04:28:29.120Z,152
2017-07-19T04:29:09.578Z,152
2017-07-19T04:29:50.034Z,148
2017-07-19T04:30:30.484Z,152
2017-07-19T04:31:10.940Z,156
2017-07-19T04:31:51.392Z,156
2017-07-19T04:32:31.845Z,156
2017-07-19T04:33:12.302Z,164
2017-07-19T04:33:52.784Z,168
2017-07-19T04:34:33.237Z,172
2017-07-19T04:35:13.691Z,176
2017-07-19T04:35:54.141Z,176
2017-07-19T04:36:34.598Z,184
2017-07-19T04:37:15.053Z,188
2017-07-19T04:37:55.506Z,192
2017-07-19T04:38:35.963Z,192
2017-07-19T04:39:16.417Z,196
2017-07-19T04:39:56.875Z,196
2017-07-19T04:40:37.331Z,196
2017-07-19T04:41:17.790Z,196
2017-07-19T04:41:58.248Z,196
2017-07-19T04:42:38.706Z,196
2017-07-19T04:43:19.156Z,200
2017-07-19T04:43:59.611Z,196
2017-07-19T04:44:40.083Z,192
2017-07-19T04:45:20.526Z,188
2017-07-19T04:46:00.995Z,192
2017-07-19T04:46:41.441Z,196
2017-07-19T04:47:21.897Z,200
2017-07-19T04:48:02.349Z,204
2017-07-19T04:48:42.802Z,204
2017-07-19T04:49:23.258Z,208
2017-07-19T04:50:03.708Z,216
2017-07-19T04:50:44.163Z,220
2017-07-19T04:51:24.620Z,228
2017-07-19T04:52:05.074Z,236
2017-07-19T04:52:45.532Z,244
2017-07-19T04:53:26.000Z,248
2017-07-19T04:54:06.456Z,260
2017-07-19T04:54:46.910Z,264
2017-07-19T04:55:27.362Z,280
2017-07-19T04:56:07.818Z,284
2017-07-19T04:56:48.270Z,296
2017-07-19T04:57:28.735Z,304
2017-07-19T04:58:09.190Z,324
2017-07-19T04:58:49.643Z,348
2017-07-19T04:59:30.095Z,344
2017-07-19T05:00:10.549Z,320
2017-07-19T05:00:50.996Z,340
2017-07-19T05:01:31.447Z,360
2017-07-19T05:02:11.902Z,364
2017-07-19T05:02:52.360Z,372
2017-07-19T05:03:32.804Z,372
2017-07-19T05:04:13.262Z,380
2017-07-19T05:04:53.715Z,388
2017-07-19T05:05:34.169Z,396
2017-07-19T05:06:14.625Z,396
2017-07-19T05:06:55.078Z,396
2017-07-19T05:07:35.584Z,400
2017-07-19T05:08:16.043Z,404
2017-07-19T05:08:56.502Z,408
2017-07-19T05:09:36.961Z,416
2017-07-19T05:10:17.412Z,424
2017-07-19T05:10:57.867Z,432
2017-07-19T05:11:38.335Z,432
2017-07-19T05:12:18.790Z,432
2017-07-19T05:12:59.251Z,432
2017-07-19T05:13:39.706Z,440
2017-07-19T05:14:20.175Z,448
2017-07-19T05:15:00.622Z,452
2017-07-19T05:15:41.078Z,460
2017-07-19T05:16:21.535Z,460
2017-07-19T05:17:01.985Z,464
2017-07-19T05:17:42.441Z,472
2017-07-19T05:18:22.899Z,480
2017-07-19T05:19:03.353Z,484
2017-07-19T05:19:43.816Z,488
2017-07-19T05:20:24.268Z,492
2017-07-19T05:21:04.723Z,488
2017-07-19T05:21:45.168Z,488
2017-07-19T05:22:25.634Z,472
2017-07-19T05:23:06.095Z,468
2017-07-19T05:23:46.543Z,464
2017-07-19T05:24:26.991Z,496
2017-07-19T05:25:07.445Z,500
2017-07-19T05:25:47.910Z,496
2017-07-19T05:26:28.365Z,508
2017-07-19T05:27:08.816Z,508
2017-07-19T05:27:49.270Z,504
2017-07-19T05:28:29.729Z,500
2017-07-19T05:29:10.175Z,508
2017-07-19T05:29:50.630Z,508
2017-07-19T05:30:31.088Z,516
2017-07-19T05:31:11.544Z,520
2017-07-19T05:31:52.002Z,516
2017-07-19T05:32:32.462Z,524
2017-07-19T05:33:12.927Z,528
2017-07-19T05:33:53.351Z,540
2017-07-19T05:34:33.813Z,548
2017-07-19T05:35:14.263Z,548
2017-07-19T05:35:54.770Z,556
2017-07-19T05:36:35.125Z,560
2017-07-19T05:37:15.572Z,564
2017-07-19T05:37:56.032Z,572
2017-07-19T05:38:36.470Z,576
2017-07-19T05:39:16.917Z,580
2017-07-19T05:39:57.387Z,592
2017-07-19T05:40:37.829Z,596
2017-07-19T05:41:18.279Z,576
2017-07-19T05:41:58.734Z,624
2017-07-19T05:42:39.223Z,628
2017-07-19T05:43:19.674Z,632
2017-07-19T05:44:00.120Z,612
2017-07-19T05:44:40.580Z,540
2017-07-19T05:45:21.040Z,640
2017-07-19T05:46:01.488Z,672
2017-07-19T05:46:41.953Z,692
2017-07-19T05:47:22.407Z,708
2017-07-19T05:48:02.863Z,708
2017-07-19T05:48:43.315Z,712
2017-07-19T05:49:23.774Z,716
2017-07-19T05:50:04.229Z,720
2017-07-19T05:50:44.687Z,720
2017-07-19T05:51:25.132Z,720
2017-07-19T05:52:05.581Z,716
2017-07-19T05:52:46.025Z,712
2017-07-19T05:53:26.479Z,720
2017-07-19T05:54:06.916Z,716
2017-07-19T05:54:47.360Z,712
2017-07-19T05:55:27.811Z,716
2017-07-19T05:56:08.258Z,720
2017-07-19T05:56:48.695Z,716
2017-07-19T05:57:29.137Z,716
2017-07-19T05:58:09.588Z,720
2017-07-19T05:58:50.127Z,720
2017-07-19T05:59:30.651Z,704
2017-07-19T06:00:11.110Z,656
2017-07-19T06:00:51.508Z,632
2017-07-19T06:01:31.980Z,656
2017-07-19T06:02:12.353Z,736
2017-07-19T06:02:52.746Z,756
2017-07-19T06:03:33.125Z,756
2017-07-19T06:04:13.560Z,760
2017-07-19T06:04:54.001Z,760
2017-07-19T06:07:22.255Z,788
2017-07-19T06:08:02.687Z,792
2017-07-19T06:08:43.098Z,804
2017-07-19T06:09:23.656Z,804
2017-07-19T06:10:04.037Z,812
2017-07-19T06:10:44.465Z,816
2017-07-19T06:11:24.979Z,820
2017-07-19T06:12:05.404Z,824
2017-07-19T06:12:45.990Z,824
2017-07-19T06:13:26.478Z,832
2017-07-19T06:14:07.045Z,840
2017-07-19T06:14:47.378Z,844
2017-07-19T06:15:27.823Z,848
2017-07-19T06:16:08.275Z,856
2017-07-19T06:16:48.688Z,864
2017-07-19T06:17:29.162Z,864
2017-07-19T06:18:09.502Z,868
2017-07-19T06:18:49.939Z,872
2017-07-19T06:20:47.735Z,888
2017-07-19T06:21:28.194Z,892
2017-07-19T06:22:08.650Z,892
2017-07-19T06:22:49.101Z,896
2017-07-19T06:23:29.532Z,900
2017-07-19T06:24:10.097Z,904
2017-07-19T06:24:50.447Z,912
2017-07-19T06:25:30.892Z,916
2017-07-19T06:26:11.272Z,924
2017-07-19T06:26:51.703Z,928
2017-07-19T06:27:32.164Z,936
2017-07-19T06:30:00.425Z,944
2017-07-19T06:30:40.847Z,952
2017-07-19T06:31:21.278Z,956
2017-07-19T06:32:01.714Z,960
2017-07-19T06:32:42.152Z,964
2017-07-19T06:33:22.665Z,972
2017-07-19T06:34:03.041Z,976
2017-07-19T06:34:43.475Z,980
2017-07-19T06:37:11.485Z,996
2017-07-19T06:37:51.925Z,1000
2017-07-19T06:38:32.381Z,1004
2017-07-19T06:39:12.808Z,1008
2017-07-19T06:39:53.316Z,1012
2017-07-19T06:42:11.222Z,1024
2017-07-19T06:42:51.671Z,1028
2017-07-19T06:43:32.101Z,1028
2017-07-19T06:44:12.530Z,1032
2017-07-19T06:44:52.972Z,1036
2017-07-19T06:45:33.379Z,1040
2017-07-19T06:46:13.867Z,1044
2017-07-19T06:46:54.325Z,1048
2017-07-19T06:47:34.766Z,1052
2017-07-19T06:48:15.231Z,1056
2017-07-19T06:48:55.758Z,1068
2017-07-19T06:49:36.222Z,1072
2017-07-19T06:50:16.698Z,1076
2017-07-19T06:50:57.215Z,1080
2017-07-19T06:51:37.695Z,1084
2017-07-19T06:52:18.102Z,1088
2017-07-19T06:52:58.571Z,1096
2017-07-19T06:53:38.998Z,1100
2017-07-19T06:54:19.450Z,1104
2017-07-19T06:54:59.931Z,1112
2017-07-19T06:55:40.477Z,1120
2017-07-19T06:56:20.939Z,1124
2017-07-19T06:57:01.367Z,1128
2017-07-19T06:57:41.812Z,1136
2017-07-19T06:58:22.266Z,1140
2017-07-19T06:59:02.723Z,1148
2017-07-19T06:59:43.180Z,1148
2017-07-19T07:00:23.628Z,1156
2017-07-19T07:01:04.085Z,1164
2017-07-19T07:01:44.544Z,1168
2017-07-19T07:02:24.999Z,1172
2017-07-19T07:03:05.432Z,1180
2017-07-19T07:03:45.871Z,1188
2017-07-19T07:04:26.292Z,1192
2017-07-19T07:05:06.746Z,1196
2017-07-19T07:05:47.159Z,1204
2017-07-19T07:06:27.603Z,1208
2017-07-19T07:07:08.090Z,1216
2017-07-19T07:07:48.515Z,1216
2017-07-19T07:08:28.899Z,1228
2017-07-19T07:09:10.042Z,1236
2017-07-19T07:09:49.753Z,1244
2017-07-19T07:10:30.154Z,1252
2017-07-19T07:11:10.579Z,1256
2017-07-19T07:11:51.000Z,1268
2017-07-19T07:12:31.394Z,1272
2017-07-19T07:13:11.831Z,1280
2017-07-19T07:13:52.314Z,1288
2017-07-19T07:14:32.749Z,1292
2017-07-19T07:16:50.969Z,1320
2017-07-19T07:17:31.417Z,1332
2017-07-19T07:18:11.871Z,1340
2017-07-19T07:18:52.310Z,1352
2017-07-19T07:19:32.758Z,1360
2017-07-19T07:20:13.210Z,1368
2017-07-19T07:20:53.695Z,1372
2017-07-19T07:21:34.107Z,1384
2017-07-19T07:22:14.494Z,1392
2017-07-19T07:22:54.927Z,1400
2017-07-19T07:23:35.317Z,1412
2017-07-19T07:24:15.752Z,1424
2017-07-19T07:24:56.130Z,1432
2017-07-19T07:25:36.578Z,1440
2017-07-19T07:26:17.009Z,1452
2017-07-19T07:26:57.435Z,1460
2017-07-19T07:28:55.367Z,1488
2017-07-19T07:29:35.800Z,1496
2017-07-19T07:30:16.269Z,1504
2017-07-19T07:30:56.657Z,1516
2017-07-19T07:31:37.185Z,1524
2017-07-19T07:32:17.653Z,1532
2017-07-19T07:32:58.103Z,1544
2017-07-19T07:33:38.532Z,1552
2017-07-19T07:35:56.540Z,1588
2017-07-19T07:36:36.985Z,1596
2017-07-19T07:37:17.438Z,1600
2017-07-19T07:37:57.887Z,1612
2017-07-19T07:38:38.342Z,1620
2017-07-19T07:39:18.787Z,1628
2017-07-19T07:39:59.222Z,1636
2017-07-19T07:40:39.687Z,1644
2017-07-19T07:41:20.131Z,1656
2017-07-19T07:42:00.636Z,1668
2017-07-19T07:42:41.094Z,1672
2017-07-19T07:43:21.630Z,1692
2017-07-19T07:44:02.082Z,1700
2017-07-19T07:44:42.528Z,1716
2017-07-19T07:45:22.988Z,1728
2017-07-19T07:46:03.425Z,1740
2017-07-19T07:46:43.878Z,1748
2017-07-19T07:47:24.339Z,1760
2017-07-19T07:48:04.791Z,1772
2017-07-19T07:48:45.238Z,1784
2017-07-19T07:49:25.682Z,1796
2017-07-19T07:50:06.134Z,1808
2017-07-19T07:50:46.587Z,1820
2017-07-19T07:51:27.041Z,1832
2017-07-19T07:52:07.498Z,1844
2017-07-19T07:52:47.951Z,1852
2017-07-19T07:53:28.404Z,1864
2017-07-19T07:54:08.870Z,1868
2017-07-19T07:54:49.328Z,1872
2017-07-19T07:55:29.779Z,1880
2017-07-19T07:56:10.223Z,1884
2017-07-19T07:56:50.683Z,1892
2017-07-19T07:57:31.138Z,1904
2017-07-19T07:58:11.598Z,1920
2017-07-19T07:58:52.090Z,1932
2017-07-19T07:59:32.538Z,1948
2017-07-19T08:00:12.987Z,1956
2017-07-19T08:00:53.493Z,1968
2017-07-19T08:01:33.948Z,1976
2017-07-19T08:02:14.410Z,1984
2017-07-19T08:02:54.862Z,1996
2017-07-19T08:03:35.312Z,2004
2017-07-19T08:04:15.768Z,2008
2017-07-19T08:04:56.223Z,2016
2017-07-19T08:05:36.685Z,2024
2017-07-19T08:06:17.135Z,2032
2017-07-19T08:06:57.589Z,2044
2017-07-19T08:07:38.039Z,2048
2017-07-19T08:08:18.490Z,2056
2017-07-19T08:08:58.945Z,2068
2017-07-19T08:09:39.396Z,2076
2017-07-19T08:10:19.856Z,2080
2017-07-19T08:11:00.305Z,2088
2017-07-19T08:11:40.763Z,2096
2017-07-19T08:12:21.216Z,2112
2017-07-19T08:13:01.728Z,2116
2017-07-19T08:13:42.183Z,2120
2017-07-19T08:14:22.630Z,2128
2017-07-19T08:15:03.083Z,2132
2017-07-19T08:15:43.536Z,2148
2017-07-19T08:16:23.993Z,2152
2017-07-19T08:17:04.441Z,2164
2017-07-19T08:17:44.888Z,2168
2017-07-19T08:18:25.339Z,2180
2017-07-19T08:19:05.797Z,2188
2017-07-19T08:19:46.259Z,2196
2017-07-19T08:20:26.715Z,2204
2017-07-19T08:21:07.171Z,2204
2017-07-19T08:21:47.636Z,2220
2017-07-19T08:22:28.102Z,2224
2017-07-19T08:23:08.555Z,2228
2017-07-19T08:23:49.008Z,2236
2017-07-19T08:24:29.453Z,2248
2017-07-19T08:25:09.901Z,2256
2017-07-19T08:25:50.356Z,2260
2017-07-19T08:26:30.815Z,2264
2017-07-19T08:27:11.264Z,2280
2017-07-19T08:27:51.720Z,2288
2017-07-19T08:28:32.198Z,2292
2017-07-19T08:29:12.605Z,2304
2017-07-19T08:29:53.062Z,2312
2017-07-19T08:30:33.522Z,2316
2017-07-19T08:31:13.978Z,2320
2017-07-19T08:31:54.441Z,2332
2017-07-19T08:32:34.896Z,2340
2017-07-19T08:33:15.346Z,2344
2017-07-19T08:33:55.800Z,2352
2017-07-19T08:34:36.253Z,2360
2017-07-19T08:35:16.769Z,2368
2017-07-19T08:35:57.240Z,2376
2017-07-19T08:36:37.698Z,2384
2017-07-19T08:37:18.164Z,2388
2017-07-19T08:37:58.623Z,2396
2017-07-19T08:38:39.070Z,2404
2017-07-19T08:39:19.530Z,2412
2017-07-19T08:39:59.984Z,2420
2017-07-19T08:40:40.435Z,2428
2017-07-19T08:41:20.895Z,2432
2017-07-19T08:42:01.346Z,2440
2017-07-19T08:42:41.790Z,2452
2017-07-19T08:43:22.277Z,2456
2017-07-19T08:44:02.727Z,2464
2017-07-19T08:44:43.198Z,2476
2017-07-19T08:45:23.640Z,2480
2017-07-19T08:46:04.091Z,2488
2017-07-19T08:46:44.553Z,2488
2017-07-19T08:47:25.082Z,2496
2017-07-19T08:48:05.541Z,2504
2017-07-19T08:48:45.990Z,2508
2017-07-19T08:49:26.464Z,2516
2017-07-19T08:50:06.963Z,2528
2017-07-19T08:50:47.415Z,2532
2017-07-19T08:51:28.050Z,2540
2017-07-19T08:52:08.503Z,2548
2017-07-19T08:52:48.958Z,2552
2017-07-19T08:53:29.373Z,2560
2017-07-19T08:54:09.834Z,2568
2017-07-19T08:54:50.287Z,2576
2017-07-19T08:55:30.753Z,2584
2017-07-19T08:56:11.289Z,2588
2017-07-19T08:56:51.758Z,2600
2017-07-19T08:57:32.201Z,2604
2017-07-19T08:58:12.648Z,2612
2017-07-19T08:58:53.106Z,2620
2017-07-19T08:59:33.559Z,2624
2017-07-19T09:00:14.024Z,2636
2017-07-19T09:00:54.482Z,2636
2017-07-19T09:01:34.952Z,2644
2017-07-19T09:02:15.423Z,2644
2017-07-19T09:02:55.858Z,2652
2017-07-19T09:03:36.364Z,2656
2017-07-19T09:04:16.757Z,2664
2017-07-19T09:04:57.210Z,2672
2017-07-19T09:05:37.695Z,2680
2017-07-19T09:06:18.128Z,2680
2017-07-19T09:06:58.584Z,2688
2017-07-19T09:07:39.066Z,2688
2017-07-19T09:08:19.798Z,2688
2017-07-19T09:09:00.250Z,2700
2017-07-19T09:09:40.701Z,2708
2017-07-19T09:10:21.160Z,2708
2017-07-19T09:11:01.617Z,2716
2017-07-19T09:11:42.064Z,2716
2017-07-19T09:12:22.521Z,2724
2017-07-19T09:13:02.974Z,2728
2017-07-19T09:13:43.448Z,2732
2017-07-19T09:14:23.909Z,2740
2017-07-19T09:15:04.374Z,2744
2017-07-19T09:15:44.826Z,2748
2017-07-19T09:16:25.302Z,2748
2017-07-19T09:17:05.762Z,2748
2017-07-19T09:17:46.214Z,2756
2017-07-19T09:18:26.666Z,2756
2017-07-19T09:19:07.121Z,2760
2017-07-19T09:19:47.574Z,2764
2017-07-19T09:20:28.029Z,2764
2017-07-19T09:21:08.472Z,2772
2017-07-19T09:21:48.930Z,2772
2017-07-19T09:22:29.379Z,2784
2017-07-19T09:23:09.819Z,2788
2017-07-19T09:23:50.268Z,2788
2017-07-19T09:24:30.718Z,2796
2017-07-19T09:25:11.166Z,2800
2017-07-19T09:25:51.615Z,2812
2017-07-19T09:26:32.070Z,2824
2017-07-19T09:27:12.527Z,2824
2017-07-19T09:27:52.978Z,2832
2017-07-19T09:28:33.442Z,2840
2017-07-19T09:29:13.895Z,2848
2017-07-19T09:29:54.347Z,2856
2017-07-19T09:30:34.806Z,2860
2017-07-19T09:31:15.255Z,2864
2017-07-19T09:31:55.719Z,2868
2017-07-19T09:32:36.181Z,2868
2017-07-19T09:33:16.638Z,2872
2017-07-19T09:33:57.078Z,2876
2017-07-19T09:34:37.535Z,2880
2017-07-19T09:35:17.986Z,2888
2017-07-19T09:35:58.434Z,2896
2017-07-19T09:36:38.896Z,2908
2017-07-19T09:37:19.348Z,2912
2017-07-19T09:37:59.801Z,2916
2017-07-19T09:40:28.569Z,2928
2017-07-19T09:41:09.016Z,2932
2017-07-19T09:41:49.454Z,2952
2017-07-19T09:42:29.885Z,2952
2017-07-19T09:43:10.347Z,2960
2017-07-19T09:43:50.823Z,2988